sensor_id;sensor_type;location;lat;lon;timestamp;P1;durP1;ratioP1;P2;durP2;ratioP2
65035;SDS011;51603;49.300;8.880;2023-02-28T00:01:37;3.80;;;3.50;;
65035;SDS011;51603;49.300;8.880;2023-02-28T00:04:02;4.30;;;3.63;;
65035;SDS011;51603;49.300;8.880;2023-02-28T00:06:28;4.77;;;3.87;;
65035;SDS011;51603;49.300;8.880;2023-02-28T00:08:53;4.93;;;3.27;;
65035;SDS011;51603;49.300;8.880;2023-02-28T00:11:19;3.73;;;3.43;;
65035;SDS011;51603;49.300;8.880;2023-02-28T00:13:47;4.60;;;3.90;;
65035;SDS011;51603;49.300;8.880;2023-02-28T00:16:14;5.25;;;3.65;;
65035;SDS011;51603;49.300;8.880;2023-02-28T00:18:43;5.30;;;4.07;;
65035;SDS011;51603;49.300;8.880;2023-02-28T00:21:09;4.77;;;4.13;;
65035;SDS011;51603;49.300;8.880;2023-02-28T00:23:34;4.73;;;4.23;;
65035;SDS011;51603;49.300;8.880;2023-02-28T00:26:00;4.67;;;4.27;;
65035;SDS011;51603;49.300;8.880;2023-02-28T00:28:26;3.70;;;3.40;;
65035;SDS011;51603;49.300;8.880;2023-02-28T00:30:52;5.80;;;4.10;;
65035;SDS011;51603;49.300;8.880;2023-02-28T00:33:17;5.90;;;3.87;;
65035;SDS011;51603;49.300;8.880;2023-02-28T00:35:43;6.40;;;4.17;;
65035;SDS011;51603;49.300;8.880;2023-02-28T00:38:11;4.50;;;4.03;;
65035;SDS011;51603;49.300;8.880;2023-02-28T00:40:37;5.53;;;4.00;;
65035;SDS011;51603;49.300;8.880;2023-02-28T00:43:03;4.40;;;4.00;;
65035;SDS011;51603;49.300;8.880;2023-02-28T00:45:29;4.23;;;3.83;;
65035;SDS011;51603;49.300;8.880;2023-02-28T00:47:54;4.87;;;3.83;;
65035;SDS011;51603;49.300;8.880;2023-02-28T00:50:20;5.50;;;3.90;;
65035;SDS011;51603;49.300;8.880;2023-02-28T00:52:46;4.67;;;4.17;;
65035;SDS011;51603;49.300;8.880;2023-02-28T00:55:12;9.05;;;4.90;;
65035;SDS011;51603;49.300;8.880;2023-02-28T00:57:38;4.47;;;3.97;;
65035;SDS011;51603;49.300;8.880;2023-02-28T01:00:04;4.40;;;3.67;;
65035;SDS011;51603;49.300;8.880;2023-02-28T01:02:31;6.55;;;3.80;;
65035;SDS011;51603;49.300;8.880;2023-02-28T01:04:56;4.30;;;3.77;;
65035;SDS011;51603;49.300;8.880;2023-02-28T01:07:22;4.83;;;4.23;;
65035;SDS011;51603;49.300;8.880;2023-02-28T01:09:48;4.75;;;3.60;;
65035;SDS011;51603;49.300;8.880;2023-02-28T01:12:14;6.17;;;4.67;;
65035;SDS011;51603;49.300;8.880;2023-02-28T01:14:39;5.17;;;3.93;;
65035;SDS011;51603;49.300;8.880;2023-02-28T01:17:05;4.97;;;3.63;;
65035;SDS011;51603;49.300;8.880;2023-02-28T01:19:31;4.50;;;4.07;;
65035;SDS011;51603;49.300;8.880;2023-02-28T01:21:56;5.77;;;4.90;;
65035;SDS011;51603;49.300;8.880;2023-02-28T01:24:24;5.70;;;4.25;;
65035;SDS011;51603;49.300;8.880;2023-02-28T01:26:50;5.53;;;4.10;;
65035;SDS011;51603;49.300;8.880;2023-02-28T01:29:16;4.20;;;3.87;;
65035;SDS011;51603;49.300;8.880;2023-02-28T01:31:41;7.03;;;4.53;;
65035;SDS011;51603;49.300;8.880;2023-02-28T01:34:07;7.20;;;4.57;;
65035;SDS011;51603;49.300;8.880;2023-02-28T01:36:32;6.50;;;4.33;;
65035;SDS011;51603;49.300;8.880;2023-02-28T01:38:58;4.43;;;4.00;;
65035;SDS011;51603;49.300;8.880;2023-02-28T01:41:25;4.70;;;3.80;;
65035;SDS011;51603;49.300;8.880;2023-02-28T01:46:30;6.50;;;4.70;;
65035;SDS011;51603;49.300;8.880;2023-02-28T01:49:00;5.00;;;3.67;;
65035;SDS011;51603;49.300;8.880;2023-02-28T01:51:29;5.10;;;4.70;;
65035;SDS011;51603;49.300;8.880;2023-02-28T01:54:03;5.80;;;4.55;;
65035;SDS011;51603;49.300;8.880;2023-02-28T01:56:38;5.97;;;4.88;;
65035;SDS011;51603;49.300;8.880;2023-02-28T01:59:08;6.05;;;5.13;;
65035;SDS011;51603;49.300;8.880;2023-02-28T02:01:35;4.43;;;3.75;;
65035;SDS011;51603;49.300;8.880;2023-02-28T02:04:01;4.97;;;4.47;;
65035;SDS011;51603;49.300;8.880;2023-02-28T02:06:29;6.18;;;4.95;;
65035;SDS011;51603;49.300;8.880;2023-02-28T02:09:07;6.13;;;4.90;;
65035;SDS011;51603;49.300;8.880;2023-02-28T02:11:33;6.90;;;4.90;;
65035;SDS011;51603;49.300;8.880;2023-02-28T02:16:47;7.22;;;6.28;;
65035;SDS011;51603;49.300;8.880;2023-02-28T02:25:26;7.43;;;5.68;;
65035;SDS011;51603;49.300;8.880;2023-02-28T02:27:58;5.20;;;4.70;;
65035;SDS011;51603;49.300;8.880;2023-02-28T02:36:25;7.05;;;4.80;;
65035;SDS011;51603;49.300;8.880;2023-02-28T02:39:13;4.97;;;4.47;;
65035;SDS011;51603;49.300;8.880;2023-02-28T02:41:51;5.85;;;5.13;;
65035;SDS011;51603;49.300;8.880;2023-02-28T02:46:47;5.30;;;4.78;;
65035;SDS011;51603;49.300;8.880;2023-02-28T02:49:16;5.72;;;4.88;;
65035;SDS011;51603;49.300;8.880;2023-02-28T02:52:10;6.32;;;4.80;;
65035;SDS011;51603;49.300;8.880;2023-02-28T02:54:43;5.50;;;5.00;;
65035;SDS011;51603;49.300;8.880;2023-02-28T03:00:12;7.20;;;4.85;;
65035;SDS011;51603;49.300;8.880;2023-02-28T03:02:41;6.35;;;5.13;;
65035;SDS011;51603;49.300;8.880;2023-02-28T03:05:17;6.07;;;4.95;;
65035;SDS011;51603;49.300;8.880;2023-02-28T03:07:57;6.45;;;5.38;;
65035;SDS011;51603;49.300;8.880;2023-02-28T03:10:34;6.90;;;5.53;;
65035;SDS011;51603;49.300;8.880;2023-02-28T03:13:06;6.18;;;5.40;;
65035;SDS011;51603;49.300;8.880;2023-02-28T03:15:48;5.65;;;5.15;;
65035;SDS011;51603;49.300;8.880;2023-02-28T03:18:36;8.43;;;5.75;;
65035;SDS011;51603;49.300;8.880;2023-02-28T03:24:18;6.10;;;4.90;;
65035;SDS011;51603;49.300;8.880;2023-02-28T03:26:54;7.10;;;5.75;;
65035;SDS011;51603;49.300;8.880;2023-02-28T03:29:32;6.90;;;6.25;;
65035;SDS011;51603;49.300;8.880;2023-02-28T03:32:04;6.47;;;5.75;;
65035;SDS011;51603;49.300;8.880;2023-02-28T03:34:47;10.63;;;6.40;;
65035;SDS011;51603;49.300;8.880;2023-02-28T03:37:19;6.90;;;5.70;;
65035;SDS011;51603;49.300;8.880;2023-02-28T03:39:49;8.13;;;6.20;;
65035;SDS011;51603;49.300;8.880;2023-02-28T03:42:24;6.25;;;5.65;;
65035;SDS011;51603;49.300;8.880;2023-02-28T03:45:15;6.63;;;5.93;;
65035;SDS011;51603;49.300;8.880;2023-02-28T03:50:18;8.27;;;6.22;;
65035;SDS011;51603;49.300;8.880;2023-02-28T03:53:08;7.40;;;6.15;;
65035;SDS011;51603;49.300;8.880;2023-02-28T03:56:14;6.07;;;5.35;;
65035;SDS011;51603;49.300;8.880;2023-02-28T03:58:56;8.65;;;6.45;;
65035;SDS011;51603;49.300;8.880;2023-02-28T04:01:25;6.88;;;6.10;;
65035;SDS011;51603;49.300;8.880;2023-02-28T04:03:57;8.90;;;5.63;;
65035;SDS011;51603;49.300;8.880;2023-02-28T04:06:23;6.70;;;5.90;;
65035;SDS011;51603;49.300;8.880;2023-02-28T04:08:49;7.75;;;6.30;;
65035;SDS011;51603;49.300;8.880;2023-02-28T04:13:47;6.88;;;6.07;;
65035;SDS011;51603;49.300;8.880;2023-02-28T04:16:13;7.07;;;6.07;;
65035;SDS011;51603;49.300;8.880;2023-02-28T04:18:39;6.70;;;5.80;;
65035;SDS011;51603;49.300;8.880;2023-02-28T04:21:05;8.70;;;6.33;;
65035;SDS011;51603;49.300;8.880;2023-02-28T04:23:32;8.85;;;5.63;;
65035;SDS011;51603;49.300;8.880;2023-02-28T04:25:58;6.28;;;5.68;;
65035;SDS011;51603;49.300;8.880;2023-02-28T04:28:24;7.37;;;5.97;;
65035;SDS011;51603;49.300;8.880;2023-02-28T04:30:59;11.03;;;6.20;;
65035;SDS011;51603;49.300;8.880;2023-02-28T04:33:27;7.72;;;6.40;;
65035;SDS011;51603;49.300;8.880;2023-02-28T04:36:03;8.25;;;6.82;;
65035;SDS011;51603;49.300;8.880;2023-02-28T04:38:34;8.25;;;6.05;;
65035;SDS011;51603;49.300;8.880;2023-02-28T04:41:04;11.95;;;8.65;;
65035;SDS011;51603;49.300;8.880;2023-02-28T04:43:30;17.85;;;10.23;;
65035;SDS011;51603;49.300;8.880;2023-02-28T04:45:56;11.73;;;8.27;;
65035;SDS011;51603;49.300;8.880;2023-02-28T04:48:26;9.15;;;5.75;;
65035;SDS011;51603;49.300;8.880;2023-02-28T04:50:53;8.18;;;5.85;;
65035;SDS011;51603;49.300;8.880;2023-02-28T04:53:19;7.83;;;6.20;;
65035;SDS011;51603;49.300;8.880;2023-02-28T04:55:45;7.38;;;5.90;;
65035;SDS011;51603;49.300;8.880;2023-02-28T04:58:12;7.70;;;5.93;;
65035;SDS011;51603;49.300;8.880;2023-02-28T05:00:39;7.70;;;6.90;;
65035;SDS011;51603;49.300;8.880;2023-02-28T05:03:04;9.47;;;5.60;;
65035;SDS011;51603;49.300;8.880;2023-02-28T05:05:30;9.67;;;6.77;;
65035;SDS011;51603;49.300;8.880;2023-02-28T05:07:56;8.27;;;6.57;;
65035;SDS011;51603;49.300;8.880;2023-02-28T05:10:22;6.50;;;5.60;;
65035;SDS011;51603;49.300;8.880;2023-02-28T05:12:48;9.03;;;7.10;;
65035;SDS011;51603;49.300;8.880;2023-02-28T05:15:14;7.37;;;5.37;;
65035;SDS011;51603;49.300;8.880;2023-02-28T05:17:40;6.95;;;5.60;;
65035;SDS011;51603;49.300;8.880;2023-02-28T05:20:07;6.05;;;5.50;;
65035;SDS011;51603;49.300;8.880;2023-02-28T05:22:35;8.50;;;6.60;;
65035;SDS011;51603;49.300;8.880;2023-02-28T05:25:02;7.32;;;6.38;;
65035;SDS011;51603;49.300;8.880;2023-02-28T05:27:29;7.82;;;5.82;;
65035;SDS011;51603;49.300;8.880;2023-02-28T05:29:55;8.23;;;6.10;;
65035;SDS011;51603;49.300;8.880;2023-02-28T05:32:21;6.63;;;5.93;;
65035;SDS011;51603;49.300;8.880;2023-02-28T05:34:47;7.32;;;6.07;;
65035;SDS011;51603;49.300;8.880;2023-02-28T05:37:13;7.00;;;6.30;;
65035;SDS011;51603;49.300;8.880;2023-02-28T05:39:39;7.07;;;6.10;;
65035;SDS011;51603;49.300;8.880;2023-02-28T05:42:05;10.03;;;5.93;;
65035;SDS011;51603;49.300;8.880;2023-02-28T05:44:31;8.25;;;6.57;;
65035;SDS011;51603;49.300;8.880;2023-02-28T05:46:57;7.87;;;6.80;;
65035;SDS011;51603;49.300;8.880;2023-02-28T05:49:23;6.57;;;5.70;;
65035;SDS011;51603;49.300;8.880;2023-02-28T05:51:48;9.13;;;6.60;;
65035;SDS011;51603;49.300;8.880;2023-02-28T05:54:14;6.83;;;6.13;;
65035;SDS011;51603;49.300;8.880;2023-02-28T05:56:40;9.50;;;6.03;;
65035;SDS011;51603;49.300;8.880;2023-02-28T05:59:08;6.60;;;5.90;;
65035;SDS011;51603;49.300;8.880;2023-02-28T06:01:36;8.07;;;6.60;;
65035;SDS011;51603;49.300;8.880;2023-02-28T06:04:07;7.65;;;6.10;;
65035;SDS011;51603;49.300;8.880;2023-02-28T06:06:35;7.25;;;6.55;;
65035;SDS011;51603;49.300;8.880;2023-02-28T06:09:01;8.20;;;6.95;;
65035;SDS011;51603;49.300;8.880;2023-02-28T06:11:30;8.00;;;7.20;;
65035;SDS011;51603;49.300;8.880;2023-02-28T06:13:57;8.87;;;6.83;;
65035;SDS011;51603;49.300;8.880;2023-02-28T06:16:27;9.02;;;7.32;;
65035;SDS011;51603;49.300;8.880;2023-02-28T06:18:53;9.13;;;6.32;;
65035;SDS011;51603;49.300;8.880;2023-02-28T06:21:21;10.05;;;6.75;;
65035;SDS011;51603;49.300;8.880;2023-02-28T06:23:47;10.65;;;7.05;;
65035;SDS011;51603;49.300;8.880;2023-02-28T06:26:13;8.20;;;7.03;;
65035;SDS011;51603;49.300;8.880;2023-02-28T06:28:38;11.50;;;7.47;;
65035;SDS011;51603;49.300;8.880;2023-02-28T06:31:14;8.82;;;6.97;;
65035;SDS011;51603;49.300;8.880;2023-02-28T06:33:41;6.85;;;6.15;;
65035;SDS011;51603;49.300;8.880;2023-02-28T06:36:08;9.45;;;7.53;;
65035;SDS011;51603;49.300;8.880;2023-02-28T06:38:34;7.45;;;6.50;;
65035;SDS011;51603;49.300;8.880;2023-02-28T06:41:00;11.53;;;8.10;;
65035;SDS011;51603;49.300;8.880;2023-02-28T06:43:30;9.33;;;6.87;;
65035;SDS011;51603;49.300;8.880;2023-02-28T06:45:58;8.00;;;7.13;;
65035;SDS011;51603;49.300;8.880;2023-02-28T06:48:25;8.98;;;7.30;;
65035;SDS011;51603;49.300;8.880;2023-02-28T06:50:52;9.82;;;6.93;;
65035;SDS011;51603;49.300;8.880;2023-02-28T06:53:25;9.70;;;7.10;;
65035;SDS011;51603;49.300;8.880;2023-02-28T06:55:51;9.97;;;8.70;;
65035;SDS011;51603;49.300;8.880;2023-02-28T06:58:16;9.17;;;7.57;;
65035;SDS011;51603;49.300;8.880;2023-02-28T07:00:45;10.15;;;7.60;;
65035;SDS011;51603;49.300;8.880;2023-02-28T07:03:15;8.13;;;7.30;;
65035;SDS011;51603;49.300;8.880;2023-02-28T07:05:40;9.30;;;7.03;;
65035;SDS011;51603;49.300;8.880;2023-02-28T07:08:06;8.77;;;7.40;;
65035;SDS011;51603;49.300;8.880;2023-02-28T07:10:32;7.60;;;6.85;;
65035;SDS011;51603;49.300;8.880;2023-02-28T07:12:58;8.48;;;7.43;;
65035;SDS011;51603;49.300;8.880;2023-02-28T07:15:24;6.88;;;6.18;;
65035;SDS011;51603;49.300;8.880;2023-02-28T07:17:50;8.03;;;7.20;;
65035;SDS011;51603;49.300;8.880;2023-02-28T07:20:16;8.90;;;7.20;;
65035;SDS011;51603;49.300;8.880;2023-02-28T07:22:41;9.27;;;7.40;;
65035;SDS011;51603;49.300;8.880;2023-02-28T07:25:08;10.00;;;7.30;;
65035;SDS011;51603;49.300;8.880;2023-02-28T07:27:34;8.85;;;7.32;;
65035;SDS011;51603;49.300;8.880;2023-02-28T07:30:00;9.43;;;7.10;;
65035;SDS011;51603;49.300;8.880;2023-02-28T07:32:26;10.70;;;8.02;;
65035;SDS011;51603;49.300;8.880;2023-02-28T07:34:53;8.85;;;7.95;;
65035;SDS011;51603;49.300;8.880;2023-02-28T07:37:18;12.37;;;7.40;;
65035;SDS011;51603;49.300;8.880;2023-02-28T07:39:45;8.82;;;7.00;;
65035;SDS011;51603;49.300;8.880;2023-02-28T07:42:10;11.73;;;7.87;;
65035;SDS011;51603;49.300;8.880;2023-02-28T07:44:37;9.73;;;8.43;;
65035;SDS011;51603;49.300;8.880;2023-02-28T07:47:07;8.57;;;7.10;;
65035;SDS011;51603;49.300;8.880;2023-02-28T07:49:34;8.48;;;7.25;;
65035;SDS011;51603;49.300;8.880;2023-02-28T07:52:01;10.70;;;7.13;;
65035;SDS011;51603;49.300;8.880;2023-02-28T07:54:27;9.77;;;7.35;;
65035;SDS011;51603;49.300;8.880;2023-02-28T07:56:53;12.63;;;7.93;;
65035;SDS011;51603;49.300;8.880;2023-02-28T07:59:19;8.73;;;7.83;;
65035;SDS011;51603;49.300;8.880;2023-02-28T08:01:44;13.03;;;8.03;;
65035;SDS011;51603;49.300;8.880;2023-02-28T08:04:10;8.53;;;7.13;;
65035;SDS011;51603;49.300;8.880;2023-02-28T08:06:35;9.83;;;7.03;;
65035;SDS011;51603;49.300;8.880;2023-02-28T08:09:01;10.77;;;8.60;;
65035;SDS011;51603;49.300;8.880;2023-02-28T08:11:27;8.00;;;7.20;;
65035;SDS011;51603;49.300;8.880;2023-02-28T08:13:52;8.97;;;7.30;;
65035;SDS011;51603;49.300;8.880;2023-02-28T08:16:19;8.25;;;7.43;;
65035;SDS011;51603;49.300;8.880;2023-02-28T08:18:47;9.50;;;8.50;;
65035;SDS011;51603;49.300;8.880;2023-02-28T08:21:14;8.30;;;7.10;;
65035;SDS011;51603;49.300;8.880;2023-02-28T08:23:39;10.17;;;8.10;;
65035;SDS011;51603;49.300;8.880;2023-02-28T08:26:05;11.23;;;7.80;;
65035;SDS011;51603;49.300;8.880;2023-02-28T08:28:31;8.47;;;7.50;;
65035;SDS011;51603;49.300;8.880;2023-02-28T08:30:56;10.57;;;8.30;;
65035;SDS011;51603;49.300;8.880;2023-02-28T08:33:22;8.10;;;7.27;;
65035;SDS011;51603;49.300;8.880;2023-02-28T08:35:51;10.73;;;7.72;;
65035;SDS011;51603;49.300;8.880;2023-02-28T08:38:17;9.20;;;7.53;;
65035;SDS011;51603;49.300;8.880;2023-02-28T08:40:43;11.60;;;7.70;;
65035;SDS011;51603;49.300;8.880;2023-02-28T08:43:08;8.53;;;7.70;;
65035;SDS011;51603;49.300;8.880;2023-02-28T08:45:34;9.03;;;8.10;;
65035;SDS011;51603;49.300;8.880;2023-02-28T08:48:00;10.93;;;8.00;;
65035;SDS011;51603;49.300;8.880;2023-02-28T08:50:25;8.73;;;7.47;;
65035;SDS011;51603;49.300;8.880;2023-02-28T08:52:51;9.20;;;8.13;;
65035;SDS011;51603;49.300;8.880;2023-02-28T08:55:16;10.80;;;7.27;;
65035;SDS011;51603;49.300;8.880;2023-02-28T08:57:42;10.77;;;7.67;;
65035;SDS011;51603;49.300;8.880;2023-02-28T09:00:07;10.10;;;7.47;;
65035;SDS011;51603;49.300;8.880;2023-02-28T09:02:35;10.38;;;7.63;;
65035;SDS011;51603;49.300;8.880;2023-02-28T09:05:00;9.23;;;6.80;;
65035;SDS011;51603;49.300;8.880;2023-02-28T09:07:26;9.10;;;8.10;;
65035;SDS011;51603;49.300;8.880;2023-02-28T09:09:51;12.83;;;8.63;;
65035;SDS011;51603;49.300;8.880;2023-02-28T09:12:21;10.00;;;7.43;;
65035;SDS011;51603;49.300;8.880;2023-02-28T09:14:50;10.35;;;8.10;;
65035;SDS011;51603;49.300;8.880;2023-02-28T09:17:16;10.73;;;6.93;;
65035;SDS011;51603;49.300;8.880;2023-02-28T09:19:43;9.63;;;8.48;;
65035;SDS011;51603;49.300;8.880;2023-02-28T09:22:09;9.50;;;7.93;;
65035;SDS011;51603;49.300;8.880;2023-02-28T09:24:36;8.85;;;7.50;;
65035;SDS011;51603;49.300;8.880;2023-02-28T09:27:02;10.60;;;9.13;;
65035;SDS011;51603;49.300;8.880;2023-02-28T09:29:28;16.33;;;8.57;;
65035;SDS011;51603;49.300;8.880;2023-02-28T09:31:53;8.73;;;7.87;;
65035;SDS011;51603;49.300;8.880;2023-02-28T09:34:19;9.87;;;7.00;;
65035;SDS011;51603;49.300;8.880;2023-02-28T09:36:45;8.50;;;7.50;;
65035;SDS011;51603;49.300;8.880;2023-02-28T09:39:11;9.97;;;7.97;;
65035;SDS011;51603;49.300;8.880;2023-02-28T09:41:41;9.20;;;7.70;;
65035;SDS011;51603;49.300;8.880;2023-02-28T09:44:57;12.10;;;8.87;;
65035;SDS011;51603;49.300;8.880;2023-02-28T09:47:13;16.37;;;13.13;;
65035;SDS011;51603;49.300;8.880;2023-02-28T09:49:50;17.93;;;14.40;;
65035;SDS011;51603;49.300;8.880;2023-02-28T09:52:17;9.97;;;8.60;;
65035;SDS011;51603;49.300;8.880;2023-02-28T09:54:46;8.70;;;7.70;;
65035;SDS011;51603;49.300;8.880;2023-02-28T10:00:13;8.57;;;7.67;;
65035;SDS011;51603;49.300;8.880;2023-02-28T10:05:24;10.03;;;8.23;;
65035;SDS011;51603;49.300;8.880;2023-02-28T10:08:00;10.43;;;8.30;;
65035;SDS011;51603;49.300;8.880;2023-02-28T10:10:50;9.30;;;8.07;;
65035;SDS011;51603;49.300;8.880;2023-02-28T10:15:46;17.80;;;8.87;;
65035;SDS011;51603;49.300;8.880;2023-02-28T10:18:16;10.50;;;8.63;;
65035;SDS011;51603;49.300;8.880;2023-02-28T10:20:50;10.40;;;9.07;;
65035;SDS011;51603;49.300;8.880;2023-02-28T10:23:21;9.67;;;8.17;;
65035;SDS011;51603;49.300;8.880;2023-02-28T10:26:05;10.90;;;9.80;;
65035;SDS011;51603;49.300;8.880;2023-02-28T10:28:36;11.90;;;7.63;;
65035;SDS011;51603;49.300;8.880;2023-02-28T10:31:02;9.20;;;7.70;;
65035;SDS011;51603;49.300;8.880;2023-02-28T10:35:59;10.87;;;7.90;;
65035;SDS011;51603;49.300;8.880;2023-02-28T10:38:37;9.80;;;8.20;;
65035;SDS011;51603;49.300;8.880;2023-02-28T10:41:05;9.50;;;8.47;;
65035;SDS011;51603;49.300;8.880;2023-02-28T10:43:33;10.40;;;8.27;;
65035;SDS011;51603;49.300;8.880;2023-02-28T10:46:01;11.33;;;8.90;;
65035;SDS011;51603;49.300;8.880;2023-02-28T10:48:30;12.30;;;8.13;;
65035;SDS011;51603;49.300;8.880;2023-02-28T10:50:59;10.10;;;8.83;;
65035;SDS011;51603;49.300;8.880;2023-02-28T10:53:30;9.13;;;7.73;;
65035;SDS011;51603;49.300;8.880;2023-02-28T10:56:05;14.50;;;10.30;;
65035;SDS011;51603;49.300;8.880;2023-02-28T11:01:22;12.37;;;8.77;;
65035;SDS011;51603;49.300;8.880;2023-02-28T11:03:56;9.60;;;8.60;;
65035;SDS011;51603;49.300;8.880;2023-02-28T11:06:26;11.03;;;9.93;;
65035;SDS011;51603;49.300;8.880;2023-02-28T11:08:58;9.70;;;8.20;;
65035;SDS011;51603;49.300;8.880;2023-02-28T11:11:27;10.60;;;9.50;;
65035;SDS011;51603;49.300;8.880;2023-02-28T11:13:57;11.70;;;10.47;;
65035;SDS011;51603;49.300;8.880;2023-02-28T11:16:35;10.80;;;9.70;;
65035;SDS011;51603;49.300;8.880;2023-02-28T11:19:03;9.70;;;8.80;;
65035;SDS011;51603;49.300;8.880;2023-02-28T11:21:36;11.07;;;9.77;;
65035;SDS011;51603;49.300;8.880;2023-02-28T11:24:07;11.20;;;9.10;;
65035;SDS011;51603;49.300;8.880;2023-02-28T11:26:47;10.43;;;9.33;;
65035;SDS011;51603;49.300;8.880;2023-02-28T11:29:24;9.97;;;8.97;;
65035;SDS011;51603;49.300;8.880;2023-02-28T11:32:01;9.67;;;8.70;;
65035;SDS011;51603;49.300;8.880;2023-02-28T11:34:27;11.10;;;10.03;;
65035;SDS011;51603;49.300;8.880;2023-02-28T11:36:54;10.43;;;9.40;;
65035;SDS011;51603;49.300;8.880;2023-02-28T11:39:21;11.53;;;10.33;;
65035;SDS011;51603;49.300;8.880;2023-02-28T11:47:29;10.83;;;9.50;;
65035;SDS011;51603;49.300;8.880;2023-02-28T11:50:11;11.67;;;9.17;;
65035;SDS011;51603;49.300;8.880;2023-02-28T11:53:00;11.70;;;9.37;;
65035;SDS011;51603;49.300;8.880;2023-02-28T11:55:35;11.13;;;9.97;;
65035;SDS011;51603;49.300;8.880;2023-02-28T12:06:23;10.17;;;9.17;;
65035;SDS011;51603;49.300;8.880;2023-02-28T12:09:02;10.73;;;9.60;;
65035;SDS011;51603;49.300;8.880;2023-02-28T12:12:07;9.90;;;8.90;;
65035;SDS011;51603;49.300;8.880;2023-02-28T12:20:22;10.10;;;9.10;;
65035;SDS011;51603;49.300;8.880;2023-02-28T12:23:30;16.70;;;11.03;;
65035;SDS011;51603;49.300;8.880;2023-02-28T12:26:38;10.60;;;9.43;;
65035;SDS011;51603;49.300;8.880;2023-02-28T12:31:54;11.80;;;10.60;;
65035;SDS011;51603;49.300;8.880;2023-02-28T12:34:22;10.50;;;9.50;;
65035;SDS011;51603;49.300;8.880;2023-02-28T12:36:53;13.30;;;9.80;;
65035;SDS011;51603;49.300;8.880;2023-02-28T12:39:24;10.33;;;9.33;;
65035;SDS011;51603;49.300;8.880;2023-02-28T12:47:46;10.30;;;9.20;;
65035;SDS011;51603;49.300;8.880;2023-02-28T12:50:15;12.60;;;10.70;;
65035;SDS011;51603;49.300;8.880;2023-02-28T12:55:40;11.77;;;10.57;;
65035;SDS011;51603;49.300;8.880;2023-02-28T13:06:44;12.77;;;9.83;;
65035;SDS011;51603;49.300;8.880;2023-02-28T13:09:25;11.70;;;10.50;;
65035;SDS011;51603;49.300;8.880;2023-02-28T13:11:53;12.77;;;11.00;;
65035;SDS011;51603;49.300;8.880;2023-02-28T13:14:25;12.00;;;9.40;;
65035;SDS011;51603;49.300;8.880;2023-02-28T13:16:57;13.13;;;11.00;;
65035;SDS011;51603;49.300;8.880;2023-02-28T13:19:40;10.93;;;9.83;;
65035;SDS011;51603;49.300;8.880;2023-02-28T13:22:18;11.20;;;10.10;;
65035;SDS011;51603;49.300;8.880;2023-02-28T13:24:54;10.57;;;9.47;;
65035;SDS011;51603;49.300;8.880;2023-02-28T13:27:24;11.83;;;10.60;;
65035;SDS011;51603;49.300;8.880;2023-02-28T13:33:21;12.03;;;10.00;;
65035;SDS011;51603;49.300;8.880;2023-02-28T13:38:44;12.37;;;10.53;;
65035;SDS011;51603;49.300;8.880;2023-02-28T13:52:33;10.07;;;9.07;;
65035;SDS011;51603;49.300;8.880;2023-02-28T14:03:05;12.67;;;11.37;;
65035;SDS011;51603;49.300;8.880;2023-02-28T14:05:39;12.17;;;10.97;;
65035;SDS011;51603;49.300;8.880;2023-02-28T14:08:07;11.03;;;9.93;;
65035;SDS011;51603;49.300;8.880;2023-02-28T14:10:45;11.40;;;9.73;;
65035;SDS011;51603;49.300;8.880;2023-02-28T14:15:59;10.30;;;9.30;;
65035;SDS011;51603;49.300;8.880;2023-02-28T14:18:28;11.20;;;10.10;;
65035;SDS011;51603;49.300;8.880;2023-02-28T14:23:55;13.53;;;10.40;;
65035;SDS011;51603;49.300;8.880;2023-02-28T14:26:51;10.73;;;9.70;;
65035;SDS011;51603;49.300;8.880;2023-02-28T14:37:46;11.90;;;10.43;;
65035;SDS011;51603;49.300;8.880;2023-02-28T14:40:16;11.60;;;10.50;;
65035;SDS011;51603;49.300;8.880;2023-02-28T14:43:04;11.80;;;10.70;;
65035;SDS011;51603;49.300;8.880;2023-02-28T14:45:32;12.43;;;11.07;;
65035;SDS011;51603;49.300;8.880;2023-02-28T14:47:59;12.93;;;11.73;;
65035;SDS011;51603;49.300;8.880;2023-02-28T14:50:27;11.40;;;10.20;;
65035;SDS011;51603;49.300;8.880;2023-02-28T14:52:56;12.57;;;11.03;;
65035;SDS011;51603;49.300;8.880;2023-02-28T14:55:24;12.20;;;11.10;;
65035;SDS011;51603;49.300;8.880;2023-02-28T14:57:56;12.60;;;10.77;;
65035;SDS011;51603;49.300;8.880;2023-02-28T15:00:27;11.97;;;10.10;;
65035;SDS011;51603;49.300;8.880;2023-02-28T15:02:59;11.40;;;10.30;;
65035;SDS011;51603;49.300;8.880;2023-02-28T15:05:33;13.10;;;10.47;;
65035;SDS011;51603;49.300;8.880;2023-02-28T15:10:39;11.70;;;10.50;;
65035;SDS011;51603;49.300;8.880;2023-02-28T15:13:14;12.23;;;10.93;;
65035;SDS011;51603;49.300;8.880;2023-02-28T15:18:17;12.60;;;11.30;;
65035;SDS011;51603;49.300;8.880;2023-02-28T15:20:50;12.07;;;10.87;;
65035;SDS011;51603;49.300;8.880;2023-02-28T15:23:16;14.43;;;11.30;;
65035;SDS011;51603;49.300;8.880;2023-02-28T15:25:43;11.67;;;10.57;;
65035;SDS011;51603;49.300;8.880;2023-02-28T15:28:11;13.13;;;11.17;;
65035;SDS011;51603;49.300;8.880;2023-02-28T15:30:51;11.27;;;10.17;;
65035;SDS011;51603;49.300;8.880;2023-02-28T15:35:46;11.53;;;10.40;;
65035;SDS011;51603;49.300;8.880;2023-02-28T15:38:33;12.60;;;10.20;;
65035;SDS011;51603;49.300;8.880;2023-02-28T15:41:00;12.43;;;9.70;;
65035;SDS011;51603;49.300;8.880;2023-02-28T15:43:27;13.00;;;11.70;;
65035;SDS011;51603;49.300;8.880;2023-02-28T15:46:10;11.87;;;10.50;;
65035;SDS011;51603;49.300;8.880;2023-02-28T15:48:53;12.10;;;10.40;;
65035;SDS011;51603;49.300;8.880;2023-02-28T15:51:22;13.60;;;11.13;;
65035;SDS011;51603;49.300;8.880;2023-02-28T15:53:58;12.07;;;10.87;;
65035;SDS011;51603;49.300;8.880;2023-02-28T15:56:27;10.87;;;9.83;;
65035;SDS011;51603;49.300;8.880;2023-02-28T15:58:55;12.70;;;10.50;;
65035;SDS011;51603;49.300;8.880;2023-02-28T16:01:26;12.10;;;10.07;;
65035;SDS011;51603;49.300;8.880;2023-02-28T16:03:56;13.53;;;11.40;;
65035;SDS011;51603;49.300;8.880;2023-02-28T16:06:32;12.00;;;10.80;;
65035;SDS011;51603;49.300;8.880;2023-02-28T16:08:59;10.50;;;9.50;;
65035;SDS011;51603;49.300;8.880;2023-02-28T16:11:25;13.93;;;11.10;;
65035;SDS011;51603;49.300;8.880;2023-02-28T16:13:51;11.90;;;9.90;;
65035;SDS011;51603;49.300;8.880;2023-02-28T16:16:18;13.00;;;10.60;;
65035;SDS011;51603;49.300;8.880;2023-02-28T16:18:45;12.20;;;10.93;;
65035;SDS011;51603;49.300;8.880;2023-02-28T16:21:11;12.47;;;11.27;;
65035;SDS011;51603;49.300;8.880;2023-02-28T16:23:37;12.73;;;10.87;;
65035;SDS011;51603;49.300;8.880;2023-02-28T16:26:03;12.03;;;10.67;;
65035;SDS011;51603;49.300;8.880;2023-02-28T16:28:30;13.50;;;10.67;;
65035;SDS011;51603;49.300;8.880;2023-02-28T16:31:02;12.13;;;10.93;;
65035;SDS011;51603;49.300;8.880;2023-02-28T16:33:30;12.60;;;10.10;;
65035;SDS011;51603;49.300;8.880;2023-02-28T16:35:56;11.57;;;10.37;;
65035;SDS011;51603;49.300;8.880;2023-02-28T16:38:22;14.90;;;11.13;;
65035;SDS011;51603;49.300;8.880;2023-02-28T16:40:49;15.57;;;12.50;;
65035;SDS011;51603;49.300;8.880;2023-02-28T16:43:17;12.20;;;10.90;;
65035;SDS011;51603;49.300;8.880;2023-02-28T16:45:47;14.50;;;10.77;;
65035;SDS011;51603;49.300;8.880;2023-02-28T16:48:14;11.93;;;10.73;;
65035;SDS011;51603;49.300;8.880;2023-02-28T16:50:41;12.43;;;10.90;;
65035;SDS011;51603;49.300;8.880;2023-02-28T16:53:08;11.90;;;10.23;;
65035;SDS011;51603;49.300;8.880;2023-02-28T16:55:34;13.03;;;10.47;;
65035;SDS011;51603;49.300;8.880;2023-02-28T16:58:00;12.20;;;10.90;;
65035;SDS011;51603;49.300;8.880;2023-02-28T17:00:27;14.23;;;11.30;;
65035;SDS011;51603;49.300;8.880;2023-02-28T17:02:55;11.27;;;10.13;;
65035;SDS011;51603;49.300;8.880;2023-02-28T17:05:21;15.20;;;12.10;;